createdAt,value
2019-05-13T00:00:26.316Z,20.90
2019-05-13T00:02:56.342Z,20.90
2019-05-13T00:05:26.282Z,20.90
2019-05-13T00:07:56.278Z,20.90
2019-05-13T00:10:26.211Z,20.90
2019-05-13T00:12:57.785Z,20.90
2019-05-13T00:15:27.757Z,20.90
2019-05-13T00:17:57.789Z,20.90
2019-05-13T00:20:27.794Z,20.90
2019-05-13T00:22:57.668Z,20.80
2019-05-13T00:25:27.783Z,20.80
2019-05-13T00:27:57.675Z,20.80
2019-05-13T00:30:27.719Z,20.80
2019-05-13T00:32:57.677Z,20.80
2019-05-13T00:35:27.542Z,20.80
2019-05-13T00:37:57.460Z,20.80
2019-05-13T00:40:27.413Z,20.80
2019-05-13T00:42:57.378Z,20.80
2019-05-13T00:45:27.274Z,20.80
2019-05-13T00:47:57.222Z,20.80
2019-05-13T00:50:27.149Z,20.80
2019-05-13T00:52:57.028Z,20.80
2019-05-13T00:55:26.954Z,20.80
2019-05-13T00:57:56.878Z,20.70
2019-05-13T01:00:26.858Z,20.70
2019-05-13T01:02:56.796Z,20.70
2019-05-13T01:05:26.843Z,20.70
2019-05-13T01:07:56.703Z,20.70
2019-05-13T01:10:26.778Z,20.70
2019-05-13T01:12:56.751Z,20.70
2019-05-13T01:15:26.775Z,20.70
2019-05-13T01:17:56.632Z,20.70
2019-05-13T01:20:26.507Z,20.70
2019-05-13T01:22:56.434Z,20.70
2019-05-13T01:25:26.366Z,20.70
2019-05-13T01:27:56.222Z,20.70
2019-05-13T01:30:27.514Z,20.70
2019-05-13T01:32:57.451Z,20.70
2019-05-13T01:35:27.399Z,20.70
2019-05-13T01:37:57.327Z,20.70
2019-05-13T01:40:27.185Z,20.70
2019-05-13T01:42:57.113Z,20.70
2019-05-13T01:45:27.059Z,20.60
2019-05-13T01:47:57.035Z,20.70
2019-05-13T01:50:27.003Z,20.70
2019-05-13T01:52:57.030Z,20.70
2019-05-13T01:55:26.975Z,20.80
2019-05-13T01:57:56.967Z,20.90
2019-05-13T02:00:26.981Z,21.00
2019-05-13T02:02:56.919Z,21.10
2019-05-13T02:05:26.911Z,21.10
2019-05-13T02:08:00.569Z,21.20
2019-05-13T02:10:46.095Z,21.30
2019-05-13T02:13:16.050Z,21.40
2019-05-13T02:15:46.091Z,21.50
2019-05-13T02:18:17.127Z,21.60
2019-05-13T02:20:47.431Z,21.60
2019-05-13T02:23:17.362Z,21.60
2019-05-13T02:25:47.357Z,21.60
2019-05-13T02:28:18.474Z,21.60
2019-05-13T02:30:48.392Z,21.60
2019-05-13T02:33:18.404Z,21.60
2019-05-13T02:35:48.422Z,21.60
2019-05-13T02:38:24.829Z,21.50
2019-05-13T02:40:52.648Z,21.50
2019-05-13T02:43:23.799Z,21.50
2019-05-13T02:45:55.301Z,21.50
2019-05-13T02:48:25.969Z,21.40
2019-05-13T02:50:55.967Z,21.40
2019-05-13T02:53:25.911Z,21.40
2019-05-13T02:55:55.921Z,21.40
2019-05-13T02:58:25.881Z,21.30
2019-05-13T03:00:55.868Z,21.30
2019-05-13T03:03:25.873Z,21.30
2019-05-13T03:05:55.923Z,21.30
2019-05-13T03:08:41.113Z,21.30
2019-05-13T03:11:02.695Z,21.20
2019-05-13T03:13:52.865Z,21.20
2019-05-13T03:16:32.456Z,21.20
2019-05-13T03:19:02.954Z,21.20
2019-05-13T03:21:33.126Z,21.20
2019-05-13T03:24:03.782Z,21.10
2019-05-13T03:26:34.043Z,21.10
2019-05-13T03:29:03.980Z,21.10
2019-05-13T03:31:36.121Z,21.10
2019-05-13T03:34:07.310Z,21.10
2019-05-13T03:36:38.120Z,21.10
2019-05-13T03:39:14.501Z,21.10
2019-05-13T03:41:42.324Z,21.00
2019-05-13T03:44:13.539Z,21.00
2019-05-13T03:46:43.823Z,21.00
2019-05-13T03:49:14.400Z,21.00
2019-05-13T03:51:45.472Z,21.00
2019-05-13T03:54:15.438Z,20.90
2019-05-13T03:56:45.367Z,20.90
2019-05-13T03:59:15.319Z,20.90
2019-05-13T04:01:45.371Z,20.90
2019-05-13T04:04:15.369Z,20.90
2019-05-13T04:06:45.339Z,20.90
2019-05-13T04:09:25.461Z,20.90
2019-05-13T04:11:47.010Z,20.90
2019-05-13T04:14:16.955Z,20.80
2019-05-13T04:16:46.910Z,20.80
2019-05-13T04:19:16.836Z,20.80
2019-05-13T04:21:47.901Z,20.80
2019-05-13T04:24:17.832Z,20.80
2019-05-13T04:26:47.851Z,20.80
2019-05-13T04:29:17.850Z,20.80
2019-05-13T04:31:47.741Z,20.80
2019-05-13T04:34:17.747Z,20.70
2019-05-13T04:36:51.882Z,20.70
2019-05-13T04:39:38.925Z,20.70
2019-05-13T04:41:53.076Z,20.70
2019-05-13T04:44:24.364Z,20.70
2019-05-13T04:46:55.458Z,20.80
2019-05-13T04:49:25.386Z,20.80
2019-05-13T04:51:55.316Z,20.90
2019-05-13T04:54:25.257Z,20.90
2019-05-13T04:56:55.267Z,21.00
2019-05-13T04:59:25.115Z,21.10
2019-05-13T05:02:36.608Z,21.20
2019-05-13T05:05:04.098Z,21.30
2019-05-13T05:07:52.735Z,21.50
2019-05-13T05:11:12.843Z,21.60
2019-05-13T05:14:24.380Z,21.60
2019-05-13T05:17:37.558Z,21.70
2019-05-13T05:20:13.037Z,21.80
2019-05-13T05:23:14.143Z,21.90
2019-05-13T05:25:55.672Z,22.00
2019-05-13T05:28:45.976Z,22.00
2019-05-13T05:31:44.648Z,22.00
2019-05-13T05:34:48.063Z,22.00
2019-05-13T05:37:44.359Z,22.10
2019-05-13T05:40:28.174Z,22.10
2019-05-13T05:42:46.072Z,22.20
2019-05-13T05:45:17.640Z,22.20
2019-05-13T05:47:47.643Z,22.10
2019-05-13T05:50:17.626Z,22.10
2019-05-13T05:52:47.486Z,22.20
2019-05-13T05:55:17.716Z,22.20
2019-05-13T05:57:47.989Z,22.10
2019-05-13T06:00:17.931Z,22.10
2019-05-13T06:02:47.863Z,22.10
2019-05-13T06:05:17.798Z,22.10
2019-05-13T06:07:47.766Z,22.10
2019-05-13T06:10:17.695Z,22.00
2019-05-13T06:12:47.782Z,22.00
2019-05-13T06:15:17.641Z,22.00
2019-05-13T06:17:47.645Z,22.00
2019-05-13T06:20:17.630Z,22.00
2019-05-13T06:22:47.563Z,22.00
2019-05-13T06:25:17.502Z,21.90
2019-05-13T06:27:47.426Z,21.90
2019-05-13T06:30:17.314Z,21.80
2019-05-13T06:32:47.265Z,21.80
2019-05-13T06:35:18.339Z,21.70
2019-05-13T06:37:48.403Z,21.70
2019-05-13T06:40:18.428Z,21.60
2019-05-13T06:42:48.359Z,21.60
2019-05-13T06:45:18.290Z,21.60
2019-05-13T06:47:48.282Z,21.60
2019-05-13T06:50:19.173Z,21.60
2019-05-13T06:52:51.218Z,21.50
2019-05-13T06:55:21.402Z,21.50
2019-05-13T06:57:51.843Z,21.50
2019-05-13T07:00:23.019Z,21.50
2019-05-13T07:02:53.046Z,21.50
2019-05-13T07:05:25.222Z,21.40
2019-05-13T07:07:55.285Z,21.40
2019-05-13T07:10:25.249Z,21.40
2019-05-13T07:12:55.110Z,21.40
2019-05-13T07:15:25.077Z,21.40
2019-05-13T07:17:55.000Z,21.40
2019-05-13T07:20:24.966Z,21.30
2019-05-13T07:22:54.896Z,21.30
2019-05-13T07:25:24.867Z,21.30
2019-05-13T07:27:54.875Z,21.30
2019-05-13T07:30:39.301Z,21.30
2019-05-13T07:33:09.354Z,21.30
2019-05-13T07:35:43.200Z,21.30
2019-05-13T07:38:11.679Z,21.30
2019-05-13T07:40:42.065Z,21.30
2019-05-13T07:43:12.561Z,21.20
2019-05-13T07:45:42.647Z,21.20
2019-05-13T07:48:20.937Z,21.20
2019-05-13T07:50:56.675Z,21.20
2019-05-13T07:53:18.909Z,21.10
2019-05-13T07:55:47.772Z,21.10
2019-05-13T07:58:17.760Z,21.10
2019-05-13T08:00:47.735Z,21.10
2019-05-13T08:03:17.702Z,21.10
2019-05-13T08:05:47.643Z,21.10
2019-05-13T08:08:17.693Z,21.20
2019-05-13T08:10:47.766Z,21.20
2019-05-13T08:13:17.766Z,21.30
2019-05-13T08:15:47.730Z,21.30
2019-05-13T08:18:18.678Z,21.40
2019-05-13T08:20:48.773Z,21.50
2019-05-13T08:23:18.768Z,21.60
2019-05-13T08:25:48.711Z,21.60
2019-05-13T08:28:18.714Z,21.70
2019-05-13T08:30:48.695Z,21.80
2019-05-13T08:33:18.715Z,21.90
2019-05-13T08:35:53.862Z,22.00
2019-05-13T08:38:22.101Z,22.10
2019-05-13T08:40:52.031Z,22.20
2019-05-13T08:43:23.070Z,22.30
2019-05-13T08:45:55.661Z,22.40
2019-05-13T08:48:24.600Z,22.40
2019-05-13T08:50:54.656Z,22.50
2019-05-13T08:53:24.585Z,22.50
2019-05-13T08:55:55.573Z,22.50
2019-05-13T08:58:25.503Z,22.50
2019-05-13T09:00:58.836Z,22.50
2019-05-13T09:03:27.507Z,22.60
2019-05-13T09:05:57.529Z,22.60
2019-05-13T09:08:27.526Z,22.60
2019-05-13T09:10:57.497Z,22.60
2019-05-13T09:13:27.490Z,22.60
2019-05-13T09:15:57.492Z,22.60
2019-05-13T09:18:27.555Z,22.50
2019-05-13T09:20:57.615Z,22.50
2019-05-13T09:23:27.622Z,22.50
2019-05-13T09:25:57.555Z,22.50
2019-05-13T09:28:27.420Z,22.40
2019-05-13T09:30:57.362Z,22.40
2019-05-13T09:33:28.402Z,22.40
2019-05-13T09:35:58.251Z,22.40
2019-05-13T09:38:28.119Z,22.30
2019-05-13T09:40:58.090Z,22.30
2019-05-13T09:43:28.049Z,22.30
2019-05-13T09:45:57.918Z,22.20
2019-05-13T09:48:27.842Z,22.20
2019-05-13T09:50:57.796Z,22.10
2019-05-13T09:53:27.744Z,22.10
2019-05-13T09:55:57.700Z,22.10
2019-05-13T09:58:30.452Z,22.00
2019-05-13T10:00:59.281Z,22.00
2019-05-13T10:03:32.125Z,22.00
2019-05-13T10:06:02.361Z,21.90
2019-05-13T10:08:33.017Z,21.90
2019-05-13T10:11:03.091Z,21.90
2019-05-13T10:13:33.163Z,21.90
2019-05-13T10:16:03.171Z,21.80
2019-05-13T10:18:33.110Z,21.80
2019-05-13T10:21:03.446Z,21.80
2019-05-13T10:23:33.577Z,21.80
2019-05-13T10:26:05.918Z,21.80
2019-05-13T10:28:35.944Z,21.80
2019-05-13T10:31:06.307Z,21.80
2019-05-13T10:33:36.313Z,21.90
2019-05-13T10:36:06.337Z,22.00
2019-05-13T10:38:36.270Z,22.00
2019-05-13T10:41:06.387Z,22.10
2019-05-13T10:43:40.190Z,22.20
2019-05-13T10:46:12.435Z,22.30
2019-05-13T10:48:41.699Z,22.40
2019-05-13T10:51:13.054Z,22.50
2019-05-13T10:53:43.390Z,22.60
2019-05-13T10:56:13.445Z,22.70
2019-05-13T10:58:43.672Z,22.70
2019-05-13T11:01:13.673Z,22.70
2019-05-13T11:03:43.705Z,22.70
2019-05-13T11:06:13.860Z,22.70
2019-05-13T11:08:44.207Z,22.70
2019-05-13T11:11:14.206Z,22.70
2019-05-13T11:13:54.346Z,22.60
2019-05-13T11:16:15.967Z,22.60
2019-05-13T11:18:46.021Z,22.60
2019-05-13T11:21:15.951Z,22.60
2019-05-13T11:23:45.907Z,22.50
2019-05-13T11:26:15.838Z,22.50
2019-05-13T11:28:45.816Z,22.50
2019-05-13T11:31:15.810Z,22.50
2019-05-13T11:33:45.851Z,22.40
2019-05-13T11:36:18.850Z,22.40
2019-05-13T11:38:47.445Z,22.40
2019-05-13T11:41:17.464Z,22.40
2019-05-13T11:44:08.197Z,22.30
2019-05-13T11:46:21.954Z,22.30
2019-05-13T11:48:51.877Z,22.20
2019-05-13T11:51:24.195Z,22.20
2019-05-13T11:53:53.754Z,22.10
2019-05-13T11:56:24.117Z,22.10
2019-05-13T11:58:54.152Z,22.10
2019-05-13T12:01:24.114Z,22.10
2019-05-13T12:03:54.170Z,22.00
2019-05-13T12:06:24.178Z,22.00
2019-05-13T12:08:55.364Z,22.00
2019-05-13T12:11:25.616Z,22.00
2019-05-13T12:13:55.569Z,21.90
2019-05-13T12:16:25.598Z,21.90
2019-05-13T12:18:55.562Z,21.90
2019-05-13T12:21:25.447Z,21.90
2019-05-13T12:23:55.681Z,21.80
2019-05-13T12:26:25.695Z,21.90
2019-05-13T12:28:56.671Z,21.80
2019-05-13T12:31:26.694Z,21.80
2019-05-13T12:33:56.709Z,21.80
2019-05-13T12:36:26.761Z,21.80
2019-05-13T12:38:56.806Z,21.80
2019-05-13T12:41:26.819Z,21.80
2019-05-13T12:43:56.850Z,21.80
2019-05-13T12:46:26.834Z,21.80
2019-05-13T12:48:56.790Z,21.80
2019-05-13T12:51:26.940Z,21.90
2019-05-13T12:53:56.933Z,21.90
2019-05-13T12:56:26.975Z,22.00
2019-05-13T12:58:57.006Z,22.10
2019-05-13T13:01:27.014Z,22.20
2019-05-13T13:03:56.957Z,22.30
2019-05-13T13:06:36.148Z,22.40
2019-05-13T13:08:58.681Z,22.50
2019-05-13T13:11:32.094Z,22.50
2019-05-13T13:14:05.341Z,22.60
2019-05-13T13:16:34.888Z,22.60
2019-05-13T13:19:03.637Z,22.70
2019-05-13T13:21:37.490Z,22.60
2019-05-13T13:24:05.274Z,22.60
2019-05-13T13:26:35.245Z,22.60
2019-05-13T13:29:05.204Z,22.60
2019-05-13T13:31:35.231Z,22.60
2019-05-13T13:34:12.230Z,22.60
2019-05-13T13:36:36.898Z,22.60
2019-05-13T13:39:07.913Z,22.50
2019-05-13T13:41:37.843Z,22.50
2019-05-13T13:44:07.878Z,22.60
2019-05-13T13:46:44.463Z,22.60
2019-05-13T13:49:12.629Z,22.60
2019-05-13T13:51:44.565Z,22.50
2019-05-13T13:54:13.062Z,22.50
2019-05-13T13:56:44.221Z,22.50
2019-05-13T13:59:15.019Z,22.50
2019-05-13T14:01:45.055Z,22.50
2019-05-13T14:04:16.291Z,22.50
2019-05-13T14:09:22.132Z,22.40
2019-05-13T14:11:51.531Z,22.40
2019-05-13T14:14:21.885Z,22.40
2019-05-13T14:16:52.094Z,22.40
2019-05-13T14:19:22.321Z,22.40
2019-05-13T14:21:52.690Z,22.40
2019-05-13T14:24:24.101Z,22.40
2019-05-13T14:26:54.160Z,22.30
2019-05-13T14:29:37.512Z,22.30
2019-05-13T14:31:56.028Z,22.30
2019-05-13T14:34:26.130Z,22.30
2019-05-13T14:36:57.278Z,22.30
2019-05-13T14:39:27.347Z,22.30
2019-05-13T14:41:57.202Z,22.30
2019-05-13T14:44:27.181Z,22.30
2019-05-13T14:46:58.101Z,22.30
2019-05-13T14:49:28.153Z,22.30
2019-05-13T14:51:58.157Z,22.20
2019-05-13T14:54:28.135Z,22.20
2019-05-13T14:56:58.198Z,22.20
2019-05-13T14:59:28.194Z,22.20
2019-05-13T15:01:58.175Z,22.10
2019-05-13T15:04:28.290Z,22.10
2019-05-13T15:06:59.372Z,22.00
2019-05-13T15:09:31.425Z,22.00
2019-05-13T15:12:02.219Z,22.00
2019-05-13T15:14:32.545Z,22.00
2019-05-13T15:17:07.165Z,21.90
2019-05-13T15:19:34.268Z,21.90
2019-05-13T15:22:04.706Z,21.90
2019-05-13T15:24:35.052Z,21.90
2019-05-13T15:27:05.066Z,21.80
2019-05-13T15:29:35.115Z,21.80
2019-05-13T15:32:05.211Z,21.80
2019-05-13T15:34:35.214Z,21.80
2019-05-13T15:37:05.512Z,21.80
2019-05-13T15:39:35.545Z,21.90
2019-05-13T15:42:05.496Z,21.90
2019-05-13T15:44:35.526Z,22.00
2019-05-13T15:47:29.140Z,22.00
2019-05-13T15:49:37.296Z,22.10
2019-05-13T15:52:07.289Z,22.20
2019-05-13T15:54:37.205Z,22.30
2019-05-13T15:57:07.222Z,22.40
2019-05-13T15:59:37.266Z,22.40
2019-05-13T16:02:07.328Z,22.50
2019-05-13T16:04:49.002Z,22.60
2019-05-13T16:07:12.225Z,22.60
2019-05-13T16:09:42.170Z,22.60
2019-05-13T16:12:13.388Z,22.60
2019-05-13T16:14:43.361Z,22.60
2019-05-13T16:17:13.751Z,22.60
2019-05-13T16:19:43.818Z,22.60
2019-05-13T16:22:13.760Z,22.60
2019-05-13T16:24:43.763Z,22.50
2019-05-13T16:27:13.859Z,22.50
2019-05-13T16:29:44.515Z,22.50
2019-05-13T16:32:14.541Z,22.50
2019-05-13T16:34:44.588Z,22.40
2019-05-13T16:37:14.591Z,22.40
2019-05-13T16:39:44.602Z,22.40
2019-05-13T16:42:14.607Z,22.40
2019-05-13T16:44:44.693Z,22.40
2019-05-13T16:47:14.722Z,22.40
2019-05-13T16:49:44.782Z,22.40
2019-05-13T16:52:14.749Z,22.40
2019-05-13T16:54:44.708Z,22.40
2019-05-13T16:57:14.771Z,22.30
2019-05-13T16:59:44.813Z,22.30
2019-05-13T17:02:14.802Z,22.30
2019-05-13T17:04:44.833Z,22.30
2019-05-13T17:07:14.846Z,22.30
2019-05-13T17:09:44.864Z,22.30
2019-05-13T17:12:15.955Z,22.30
2019-05-13T17:14:47.160Z,22.20
2019-05-13T17:17:17.213Z,22.20
2019-05-13T17:19:47.270Z,22.20
2019-05-13T17:22:17.390Z,22.20
2019-05-13T17:24:47.489Z,22.20
2019-05-13T17:27:17.827Z,22.20
2019-05-13T17:29:48.071Z,22.10
2019-05-13T17:32:17.939Z,22.10
2019-05-13T17:34:48.065Z,22.10
2019-05-13T17:37:18.176Z,22.10
2019-05-13T17:39:48.203Z,22.10
2019-05-13T17:42:21.433Z,22.00
2019-05-13T17:44:51.641Z,22.00
2019-05-13T17:47:21.941Z,22.00
2019-05-13T17:49:52.256Z,22.00
2019-05-13T17:52:22.418Z,22.00
2019-05-13T17:54:52.450Z,22.00
2019-05-13T17:57:22.620Z,22.00
2019-05-13T17:59:52.705Z,22.00
2019-05-13T18:02:22.821Z,22.10
2019-05-13T18:04:52.861Z,22.10
2019-05-13T18:07:23.049Z,22.20
2019-05-13T18:09:53.017Z,22.20
2019-05-13T18:12:23.082Z,22.20
2019-05-13T18:14:53.148Z,22.20
2019-05-13T18:17:23.225Z,22.20
2019-05-13T18:19:53.302Z,22.10
2019-05-13T18:22:23.725Z,22.10
2019-05-13T18:24:53.814Z,22.00
2019-05-13T18:27:24.624Z,22.00
2019-05-13T18:29:54.807Z,22.00
2019-05-13T18:32:24.894Z,22.00
2019-05-13T18:34:55.006Z,21.90
2019-05-13T18:37:25.131Z,21.90
2019-05-13T18:39:55.554Z,21.80
2019-05-13T18:42:25.662Z,21.80
2019-05-13T18:44:55.831Z,21.80
2019-05-13T18:47:25.828Z,21.80
2019-05-13T18:49:56.002Z,21.80
2019-05-13T18:52:26.066Z,21.80
2019-05-13T18:54:56.049Z,21.80
2019-05-13T18:57:26.069Z,21.90
2019-05-13T18:59:56.169Z,21.90
2019-05-13T19:02:26.146Z,22.00
2019-05-13T19:04:56.111Z,22.10
2019-05-13T19:07:26.114Z,22.10
2019-05-13T19:09:56.102Z,22.20
2019-05-13T19:12:26.412Z,22.30
2019-05-13T19:14:56.918Z,22.40
2019-05-13T19:17:27.018Z,22.40
2019-05-13T19:19:57.168Z,22.50
2019-05-13T19:22:28.550Z,22.50
2019-05-13T19:25:01.071Z,22.50
2019-05-13T19:27:32.096Z,22.50
2019-05-13T19:30:02.219Z,22.50
2019-05-13T19:32:33.365Z,22.60
2019-05-13T19:35:03.377Z,22.50
2019-05-13T19:37:33.367Z,22.50
2019-05-13T19:40:04.945Z,22.50
2019-05-13T19:42:36.281Z,22.50
2019-05-13T19:45:06.485Z,22.50
2019-05-13T19:47:36.522Z,22.50
2019-05-13T19:50:07.515Z,22.40
2019-05-13T19:52:37.424Z,22.40
2019-05-13T19:55:07.583Z,22.40
2019-05-13T19:57:37.622Z,22.40
2019-05-13T20:00:10.594Z,22.40
2019-05-13T20:02:39.410Z,22.30
2019-05-13T20:05:10.014Z,22.30
2019-05-13T20:07:42.000Z,22.30
2019-05-13T20:10:12.052Z,22.20
2019-05-13T20:12:42.167Z,22.20
2019-05-13T20:15:12.207Z,22.20
2019-05-13T20:17:42.379Z,22.20
2019-05-13T20:20:12.579Z,22.20
2019-05-13T20:22:42.711Z,22.20
2019-05-13T20:25:13.241Z,22.10
2019-05-13T20:27:43.353Z,22.20
2019-05-13T20:30:13.321Z,22.10
2019-05-13T20:32:43.332Z,22.10
2019-05-13T20:35:32.464Z,22.10
2019-05-13T20:38:02.424Z,22.10
2019-05-13T20:40:32.506Z,22.10
2019-05-13T20:43:02.705Z,22.00
2019-05-13T20:45:32.783Z,22.00
2019-05-13T20:48:02.709Z,22.00
2019-05-13T20:50:32.686Z,22.00
2019-05-13T20:53:02.754Z,22.00
2019-05-13T20:55:32.747Z,22.00
2019-05-13T20:58:02.766Z,22.00
2019-05-13T21:00:32.978Z,22.00
2019-05-13T21:03:02.965Z,22.00
2019-05-13T21:05:33.953Z,22.00
2019-05-13T21:08:03.892Z,22.00
2019-05-13T21:10:33.945Z,21.90
2019-05-13T21:13:03.946Z,21.90
2019-05-13T21:15:34.147Z,21.80
2019-05-13T21:18:04.022Z,21.80
2019-05-13T21:20:34.051Z,21.80
2019-05-13T21:23:04.011Z,21.80
2019-05-13T21:25:35.146Z,21.70
2019-05-13T21:28:05.241Z,21.70
2019-05-13T21:30:35.185Z,21.70
2019-05-13T21:33:05.095Z,21.60
2019-05-13T21:35:35.055Z,21.60
2019-05-13T21:38:05.043Z,21.60
2019-05-13T21:40:34.981Z,21.60
2019-05-13T21:43:05.921Z,21.60
2019-05-13T21:45:35.911Z,21.60
2019-05-13T21:48:05.879Z,21.50
2019-05-13T21:50:37.336Z,21.50
2019-05-13T21:53:07.521Z,21.50
2019-05-13T21:55:37.377Z,21.50
2019-05-13T21:58:07.331Z,21.40
2019-05-13T22:00:43.650Z,21.40
2019-05-13T22:03:13.698Z,21.40
2019-05-13T22:05:43.824Z,21.40
2019-05-13T22:08:13.755Z,21.30
2019-05-13T22:10:43.836Z,21.30
2019-05-13T22:13:13.830Z,21.30
2019-05-13T22:15:43.794Z,21.30
2019-05-13T22:18:13.753Z,21.30
2019-05-13T22:20:49.847Z,21.30
2019-05-13T22:23:15.394Z,21.30
2019-05-13T22:25:45.334Z,21.20
2019-05-13T22:28:15.309Z,21.20
2019-05-13T22:30:45.265Z,21.20
2019-05-13T22:33:15.152Z,21.20
2019-05-13T22:35:45.132Z,21.20
2019-05-13T22:38:15.069Z,21.20
2019-05-13T22:40:45.052Z,21.20
2019-05-13T22:43:15.070Z,21.10
2019-05-13T22:45:45.081Z,21.10
2019-05-13T22:48:15.155Z,21.10
2019-05-13T22:50:45.209Z,21.10
2019-05-13T22:53:15.139Z,21.10
2019-05-13T22:55:45.120Z,21.10
2019-05-13T22:58:15.177Z,21.10
2019-05-13T23:00:45.115Z,21.10
2019-05-13T23:03:16.693Z,21.10
2019-05-13T23:05:46.662Z,21.10
2019-05-13T23:08:16.538Z,21.10
2019-05-13T23:10:48.635Z,21.00
2019-05-13T23:13:18.585Z,21.00
2019-05-13T23:15:48.582Z,21.00
2019-05-13T23:18:18.524Z,21.00
2019-05-13T23:20:48.478Z,21.00
2019-05-13T23:23:18.474Z,21.00
2019-05-13T23:25:48.424Z,21.00
2019-05-13T23:28:18.391Z,21.00
2019-05-13T23:30:48.370Z,21.00
2019-05-13T23:33:18.373Z,20.90
2019-05-13T23:35:48.385Z,20.90
2019-05-13T23:38:18.438Z,20.90
2019-05-13T23:40:48.526Z,20.90
2019-05-13T23:43:18.584Z,20.90
2019-05-13T23:45:50.943Z,20.90
2019-05-13T23:48:21.634Z,20.90
2019-05-13T23:50:52.366Z,20.90
2019-05-13T23:53:22.499Z,20.90
2019-05-13T23:55:52.527Z,21.00
2019-05-13T23:58:22.609Z,21.10
